createdAt,value
2017-12-12T00:01:51.901Z,19.74
2017-12-12T00:04:20.529Z,19.75
2017-12-12T00:06:49.049Z,19.78
2017-12-12T00:09:17.505Z,19.78
2017-12-12T00:11:46.222Z,19.79
2017-12-12T00:14:14.952Z,19.74
2017-12-12T00:16:43.482Z,19.74
2017-12-12T00:19:11.954Z,19.72
2017-12-12T00:21:40.716Z,19.70
2017-12-12T00:24:09.264Z,19.65
2017-12-12T00:26:37.791Z,19.63
2017-12-12T00:29:06.350Z,19.59
2017-12-12T00:31:34.887Z,19.61
2017-12-12T00:34:03.570Z,19.60
2017-12-12T00:36:32.118Z,19.59
2017-12-12T00:39:00.785Z,19.56
2017-12-12T00:41:29.263Z,19.62
2017-12-12T00:43:57.740Z,19.64
2017-12-12T00:46:26.382Z,19.61
2017-12-12T00:48:55.041Z,19.64
2017-12-12T00:51:23.517Z,19.61
2017-12-12T00:53:51.962Z,19.62
2017-12-12T00:56:20.451Z,19.61
2017-12-12T00:58:49.176Z,19.62
2017-12-12T01:01:17.698Z,19.59
2017-12-12T01:03:46.198Z,19.57
2017-12-12T01:06:14.700Z,19.54
2017-12-12T01:08:43.158Z,19.55
2017-12-12T01:11:11.673Z,19.49
2017-12-12T01:13:40.230Z,19.45
2017-12-12T01:16:08.727Z,19.46
2017-12-12T01:18:37.254Z,19.47
2017-12-12T01:21:05.792Z,19.43
2017-12-12T01:23:34.510Z,19.41
2017-12-12T01:26:03.127Z,19.41
2017-12-12T01:28:31.619Z,19.48
2017-12-12T01:31:00.137Z,19.45
2017-12-12T01:33:28.801Z,19.46
2017-12-12T01:35:57.434Z,19.47
2017-12-12T01:38:26.086Z,19.51
2017-12-12T01:40:55.243Z,19.49
2017-12-12T01:43:24.215Z,19.49
2017-12-12T01:45:53.210Z,19.48
2017-12-12T01:48:21.845Z,19.45
2017-12-12T01:50:50.609Z,19.43
2017-12-12T01:53:19.177Z,19.39
2017-12-12T01:55:47.753Z,19.42
2017-12-12T01:58:16.609Z,19.39
2017-12-12T02:00:45.907Z,19.35
2017-12-12T02:03:14.784Z,19.40
2017-12-12T02:05:43.675Z,19.34
2017-12-12T02:08:12.457Z,19.41
2017-12-12T02:10:41.086Z,19.42
2017-12-12T02:13:09.736Z,19.45
2017-12-12T02:15:38.290Z,19.42
2017-12-12T02:18:06.862Z,19.41
2017-12-12T02:20:35.381Z,19.41
2017-12-12T02:23:04.140Z,19.41
2017-12-12T02:25:32.791Z,19.41
2017-12-12T02:28:01.469Z,19.34
2017-12-12T02:30:30.194Z,19.32
2017-12-12T02:32:58.835Z,19.30
2017-12-12T02:35:27.760Z,19.29
2017-12-12T02:37:56.390Z,19.35
2017-12-12T02:40:25.103Z,19.37
2017-12-12T02:42:53.589Z,19.41
2017-12-12T02:45:22.280Z,19.39
2017-12-12T02:47:51.162Z,19.40
2017-12-12T02:50:19.689Z,19.41
2017-12-12T02:52:48.321Z,19.38
2017-12-12T02:55:16.849Z,19.39
2017-12-12T02:57:45.450Z,19.37
2017-12-12T03:00:14.298Z,19.38
2017-12-12T03:02:42.778Z,19.33
2017-12-12T03:05:11.325Z,19.29
2017-12-12T03:07:46.409Z,19.31
2017-12-12T03:10:14.982Z,19.38
2017-12-12T03:12:43.481Z,19.51
2017-12-12T03:15:12.268Z,19.63
2017-12-12T03:17:40.918Z,19.71
2017-12-12T03:20:09.468Z,19.70
2017-12-12T03:22:38.035Z,19.66
2017-12-12T03:25:06.704Z,19.71
2017-12-12T03:27:35.231Z,19.66
2017-12-12T03:30:03.804Z,19.68
2017-12-12T03:32:32.401Z,19.63
2017-12-12T03:35:00.903Z,19.58
2017-12-12T03:37:29.604Z,19.63
2017-12-12T03:39:58.092Z,19.62
2017-12-12T03:42:26.589Z,19.63
2017-12-12T03:44:55.409Z,19.61
2017-12-12T03:47:23.924Z,19.64
2017-12-12T03:49:52.613Z,19.70
2017-12-12T03:52:21.257Z,19.66
2017-12-12T03:54:49.952Z,19.65
2017-12-12T03:57:18.586Z,19.64
2017-12-12T03:59:47.105Z,19.65
2017-12-12T04:02:15.625Z,19.66
2017-12-12T04:04:44.315Z,19.67
2017-12-12T04:07:13.050Z,19.60
2017-12-12T04:09:41.636Z,19.62
2017-12-12T04:12:10.180Z,19.66
2017-12-12T04:14:38.682Z,19.66
2017-12-12T04:17:07.540Z,19.67
2017-12-12T04:19:36.182Z,19.62
2017-12-12T04:22:04.906Z,19.59
2017-12-12T04:24:33.552Z,19.57
2017-12-12T04:27:02.061Z,19.52
2017-12-12T04:29:30.723Z,19.55
2017-12-12T04:31:59.243Z,19.54
2017-12-12T04:34:27.747Z,19.53
2017-12-12T04:36:56.319Z,19.51
2017-12-12T04:39:25.066Z,19.55
2017-12-12T04:41:53.590Z,19.54
2017-12-12T04:44:22.054Z,19.56
2017-12-12T04:46:50.574Z,19.57
2017-12-12T04:49:19.265Z,19.53
2017-12-12T04:51:47.793Z,19.53
2017-12-12T04:54:16.355Z,19.52
2017-12-12T04:56:45.075Z,19.53
2017-12-12T04:59:13.734Z,19.53
2017-12-12T05:04:37.598Z,19.46
2017-12-12T05:07:05.913Z,19.45
2017-12-12T05:09:34.331Z,19.40
2017-12-12T05:12:02.826Z,19.42
2017-12-12T05:14:31.155Z,19.42
2017-12-12T05:16:59.493Z,19.35
2017-12-12T05:19:27.850Z,19.33
2017-12-12T05:21:56.429Z,19.33
2017-12-12T05:24:24.749Z,19.39
2017-12-12T05:26:53.166Z,19.39
2017-12-12T05:29:21.653Z,19.43
2017-12-12T05:31:50.007Z,19.41
2017-12-12T05:34:18.309Z,19.42
2017-12-12T05:36:46.597Z,19.41
2017-12-12T05:39:14.939Z,19.40
2017-12-12T05:41:43.230Z,19.34
2017-12-12T05:44:16.190Z,19.32
2017-12-12T05:46:44.541Z,19.29
2017-12-12T05:49:13.420Z,19.27
2017-12-12T05:51:41.742Z,19.29
2017-12-12T05:54:10.014Z,19.32
2017-12-12T05:56:38.305Z,19.34
2017-12-12T05:59:06.653Z,19.39
2017-12-12T06:01:34.909Z,19.43
2017-12-12T06:04:03.953Z,19.43
2017-12-12T06:06:32.357Z,19.47
2017-12-12T06:09:00.621Z,19.48
2017-12-12T06:11:28.899Z,19.48
2017-12-12T06:13:57.169Z,19.50
2017-12-12T06:16:25.481Z,19.49
2017-12-12T06:18:54.298Z,19.49
2017-12-12T06:21:22.633Z,19.46
2017-12-12T06:23:50.962Z,19.45
2017-12-12T06:26:19.249Z,19.49
2017-12-12T06:28:47.532Z,19.42
2017-12-12T06:31:15.809Z,19.43
2017-12-12T06:33:44.110Z,19.42
2017-12-12T06:36:12.751Z,19.42
2017-12-12T06:38:47.556Z,19.41
2017-12-12T06:41:15.861Z,19.40
2017-12-12T06:43:44.125Z,19.32
2017-12-12T06:46:14.936Z,19.23
2017-12-12T06:48:44.122Z,19.24
2017-12-12T06:51:12.445Z,19.23
2017-12-12T06:53:41.061Z,19.26
2017-12-12T06:56:11.384Z,19.25
2017-12-12T06:58:40.190Z,19.23
2017-12-12T07:01:11.413Z,19.28
2017-12-12T07:03:39.857Z,19.24
2017-12-12T07:06:08.137Z,19.24
2017-12-12T07:08:36.909Z,19.27
2017-12-12T07:11:05.198Z,19.23
2017-12-12T07:13:33.437Z,19.22
2017-12-12T07:16:01.713Z,19.22
2017-12-12T07:18:29.953Z,19.21
2017-12-12T07:20:58.218Z,19.22
2017-12-12T07:23:26.537Z,19.17
2017-12-12T07:25:54.888Z,19.17
2017-12-12T07:28:23.229Z,19.12
2017-12-12T07:30:51.536Z,19.20
2017-12-12T07:33:19.803Z,19.22
2017-12-12T07:35:48.069Z,19.28
2017-12-12T07:38:16.369Z,19.32
2017-12-12T07:40:44.729Z,19.30
2017-12-12T07:43:13.109Z,19.32
2017-12-12T07:45:41.548Z,19.29
2017-12-12T07:48:09.995Z,19.30
2017-12-12T07:50:38.264Z,19.25
2017-12-12T07:53:06.567Z,19.24
2017-12-12T07:55:34.922Z,19.26
2017-12-12T07:58:03.429Z,19.30
2017-12-12T08:00:31.789Z,19.31
2017-12-12T08:03:00.333Z,19.36
2017-12-12T08:05:28.645Z,19.41
2017-12-12T08:07:57.056Z,19.40
2017-12-12T08:10:25.785Z,19.37
2017-12-12T08:12:54.017Z,19.38
2017-12-12T08:15:23.257Z,19.39
2017-12-12T08:17:51.611Z,19.31
2017-12-12T08:20:19.868Z,19.36
2017-12-12T08:22:48.200Z,19.37
2017-12-12T08:25:16.489Z,19.41
2017-12-12T08:27:44.724Z,19.39
2017-12-12T08:30:13.231Z,19.42
2017-12-12T08:32:41.504Z,19.44
2017-12-12T08:35:09.814Z,19.44
2017-12-12T08:37:38.094Z,19.42
2017-12-12T08:40:06.545Z,19.42
2017-12-12T08:42:34.804Z,19.42
2017-12-12T08:45:03.040Z,19.41
2017-12-12T08:47:31.384Z,19.41
2017-12-12T08:49:59.617Z,19.43
2017-12-12T08:52:28.135Z,19.38
2017-12-12T08:54:56.373Z,19.36
2017-12-12T08:57:24.678Z,19.25
2017-12-12T08:59:52.942Z,19.28
2017-12-12T09:02:21.238Z,19.32
2017-12-12T09:04:49.477Z,19.38
2017-12-12T09:07:17.793Z,19.38
2017-12-12T09:09:46.035Z,19.40
2017-12-12T09:12:14.556Z,19.40
2017-12-12T09:14:42.802Z,19.40
2017-12-12T09:17:11.126Z,19.41
2017-12-12T09:19:39.391Z,19.38
2017-12-12T09:22:07.704Z,19.41
2017-12-12T09:24:35.985Z,19.40
2017-12-12T09:27:04.302Z,19.45
2017-12-12T09:29:32.586Z,19.48
2017-12-12T09:32:00.901Z,19.48
2017-12-12T09:34:29.154Z,19.50
2017-12-12T09:36:57.449Z,19.48
2017-12-12T09:39:25.716Z,19.49
2017-12-12T09:41:54.005Z,19.47
2017-12-12T09:44:22.339Z,19.46
2017-12-12T09:46:50.681Z,19.40
2017-12-12T09:49:19.069Z,19.41
2017-12-12T09:51:47.397Z,19.35
2017-12-12T09:54:15.621Z,19.32
2017-12-12T09:56:43.917Z,19.27
2017-12-12T09:59:12.153Z,19.26
2017-12-12T10:01:40.467Z,19.23
2017-12-12T10:04:08.745Z,19.20
2017-12-12T10:06:37.051Z,19.17
2017-12-12T10:09:05.463Z,19.15
2017-12-12T10:11:33.781Z,19.09
2017-12-12T10:14:02.052Z,19.13
2017-12-12T10:16:30.413Z,19.23
2017-12-12T10:18:58.657Z,19.25
2017-12-12T10:21:26.997Z,19.29
2017-12-12T10:23:55.297Z,19.30
2017-12-12T10:26:23.618Z,19.31
2017-12-12T10:28:51.907Z,19.34
2017-12-12T10:31:20.222Z,19.34
2017-12-12T10:33:48.517Z,19.32
2017-12-12T10:36:16.818Z,19.34
2017-12-12T10:38:45.084Z,19.36
2017-12-12T10:41:13.516Z,19.37
2017-12-12T10:43:41.819Z,19.39
2017-12-12T10:46:10.181Z,19.41
2017-12-12T10:48:38.571Z,19.40
2017-12-12T10:51:06.876Z,19.39
2017-12-12T10:53:35.220Z,19.40
2017-12-12T10:56:03.541Z,19.40
2017-12-12T10:58:31.804Z,19.42
2017-12-12T11:01:00.122Z,19.42
2017-12-12T11:03:28.365Z,19.43
2017-12-12T11:05:56.689Z,19.44
2017-12-12T11:08:24.918Z,19.47
2017-12-12T11:10:53.238Z,19.45
2017-12-12T11:13:21.478Z,19.43
2017-12-12T11:15:49.802Z,19.42
2017-12-12T11:18:18.057Z,19.43
2017-12-12T11:20:46.353Z,19.47
2017-12-12T11:23:14.610Z,19.45
2017-12-12T11:25:42.933Z,19.47
2017-12-12T11:28:11.518Z,19.47
2017-12-12T11:30:39.837Z,19.44
2017-12-12T11:33:08.309Z,19.45
2017-12-12T11:35:36.573Z,19.45
2017-12-12T11:38:04.843Z,19.43
2017-12-12T11:40:33.118Z,19.45
2017-12-12T11:43:01.381Z,19.43
2017-12-12T11:45:29.657Z,19.44
2017-12-12T11:47:57.893Z,19.43
2017-12-12T11:50:26.294Z,19.41
2017-12-12T11:52:54.548Z,19.41
2017-12-12T11:55:22.861Z,19.43
2017-12-12T11:57:51.280Z,19.41
2017-12-12T12:00:19.565Z,19.41
2017-12-12T12:02:48.141Z,19.37
2017-12-12T12:05:16.598Z,19.39
2017-12-12T12:07:44.845Z,19.40
2017-12-12T12:10:13.121Z,19.41
2017-12-12T12:12:41.548Z,19.41
2017-12-12T12:15:09.920Z,19.40
2017-12-12T12:17:38.214Z,19.42
2017-12-12T12:20:06.526Z,19.43
2017-12-12T12:22:34.835Z,19.44
2017-12-12T12:25:03.154Z,19.47
2017-12-12T12:27:31.475Z,19.47
2017-12-12T12:29:59.873Z,19.43
2017-12-12T12:32:28.408Z,19.42
2017-12-12T12:34:56.658Z,19.43
2017-12-12T12:37:24.981Z,19.41
2017-12-12T12:39:53.226Z,19.42
2017-12-12T12:42:21.564Z,19.40
2017-12-12T12:44:49.853Z,19.38
2017-12-12T12:47:18.145Z,19.39
2017-12-12T12:49:46.428Z,19.39
2017-12-12T12:52:15.808Z,19.36
2017-12-12T12:54:44.089Z,19.33
2017-12-12T12:57:12.426Z,19.28
2017-12-12T12:59:40.720Z,19.20
2017-12-12T13:02:09.109Z,19.17
2017-12-12T13:04:37.364Z,19.15
2017-12-12T13:07:05.680Z,19.13
2017-12-12T13:09:33.934Z,19.08
2017-12-12T13:12:02.453Z,19.04
2017-12-12T13:14:30.721Z,19.00
2017-12-12T13:16:59.185Z,18.97
2017-12-12T13:19:27.441Z,18.97
2017-12-12T13:21:55.857Z,19.01
2017-12-12T13:24:24.128Z,19.01
2017-12-12T13:26:52.414Z,19.03
2017-12-12T13:29:20.763Z,19.00
2017-12-12T13:31:49.261Z,18.98
2017-12-12T13:34:17.698Z,19.06
2017-12-12T13:36:45.997Z,19.00
2017-12-12T13:39:14.233Z,18.96
2017-12-12T13:41:42.517Z,18.91
2017-12-12T13:44:10.814Z,18.88
2017-12-12T13:46:39.092Z,18.90
2017-12-12T13:49:07.378Z,18.96
2017-12-12T13:51:35.677Z,18.91
2017-12-12T13:54:03.949Z,18.91
2017-12-12T13:56:32.254Z,18.80
2017-12-12T13:59:00.548Z,18.89
2017-12-12T14:01:28.831Z,19.08
2017-12-12T14:03:57.109Z,19.22
2017-12-12T14:06:25.381Z,19.37
2017-12-12T14:08:53.780Z,19.49
2017-12-12T14:11:22.061Z,19.61
2017-12-12T14:13:50.317Z,19.70
2017-12-12T14:16:18.610Z,19.81
2017-12-12T14:18:46.988Z,19.89
2017-12-12T14:21:15.284Z,19.98
2017-12-12T14:23:43.539Z,20.04
2017-12-12T14:26:11.852Z,20.10
2017-12-12T14:28:40.112Z,20.23
2017-12-12T14:31:08.403Z,20.31
2017-12-12T14:33:36.738Z,20.33
2017-12-12T14:36:05.012Z,20.34
2017-12-12T14:38:33.317Z,20.34
2017-12-12T14:41:01.613Z,20.24
2017-12-12T14:43:29.934Z,20.13
2017-12-12T14:45:58.231Z,20.16
2017-12-12T14:48:26.512Z,20.07
2017-12-12T14:50:54.781Z,20.00
2017-12-12T14:53:23.153Z,20.03
2017-12-12T14:55:51.445Z,19.96
2017-12-12T14:58:19.721Z,19.99
2017-12-12T15:00:47.981Z,20.02
2017-12-12T15:03:16.258Z,20.05
2017-12-12T15:05:44.516Z,20.01
2017-12-12T15:08:12.804Z,20.03
2017-12-12T15:10:41.149Z,19.95
2017-12-12T15:13:09.409Z,19.96
2017-12-12T15:15:37.680Z,19.98
2017-12-12T15:18:06.003Z,19.95
2017-12-12T15:20:34.269Z,19.93
2017-12-12T15:23:02.676Z,19.91
2017-12-12T15:25:30.956Z,19.94
2017-12-12T15:27:59.234Z,19.97
2017-12-12T15:30:27.525Z,20.15
2017-12-12T15:32:55.793Z,20.13
2017-12-12T15:35:24.069Z,20.16
2017-12-12T15:37:52.329Z,20.13
2017-12-12T15:40:20.847Z,20.03
2017-12-12T15:42:49.316Z,20.05
2017-12-12T15:45:17.598Z,19.97
2017-12-12T15:47:45.859Z,19.96
2017-12-12T15:50:14.149Z,19.95
2017-12-12T15:52:42.424Z,19.96
2017-12-12T15:55:10.713Z,19.94
2017-12-12T15:57:39.055Z,19.93
2017-12-12T16:00:07.333Z,19.93
2017-12-12T16:02:35.617Z,19.94
2017-12-12T16:05:03.904Z,19.97
2017-12-12T16:07:32.192Z,19.95
2017-12-12T16:10:00.462Z,19.96
2017-12-12T16:12:28.807Z,19.97
2017-12-12T16:14:57.076Z,19.98
2017-12-12T16:17:25.397Z,19.96
2017-12-12T16:19:54.740Z,19.98
2017-12-12T16:22:23.589Z,19.99
2017-12-12T16:24:51.861Z,20.00
2017-12-12T16:27:20.574Z,20.01
2017-12-12T16:29:49.386Z,20.00
2017-12-12T16:32:17.729Z,19.97
2017-12-12T16:34:45.969Z,20.04
2017-12-12T16:37:14.276Z,20.15
2017-12-12T16:39:42.522Z,20.20
2017-12-12T16:42:10.802Z,20.32
2017-12-12T16:44:39.086Z,20.34
2017-12-12T16:47:07.369Z,20.26
2017-12-12T16:49:35.713Z,20.19
2017-12-12T16:52:03.989Z,20.24
2017-12-12T16:54:32.258Z,20.30
2017-12-12T16:57:00.549Z,20.28
2017-12-12T16:59:28.796Z,20.24
2017-12-12T17:01:57.069Z,20.25
2017-12-12T17:04:25.328Z,20.18
2017-12-12T17:06:53.644Z,20.21
2017-12-12T17:09:22.162Z,20.26
2017-12-12T17:11:50.453Z,20.30
2017-12-12T17:14:18.720Z,20.36
2017-12-12T17:16:46.997Z,20.40
2017-12-12T17:19:15.282Z,20.43
2017-12-12T17:21:43.573Z,20.42
2017-12-12T17:24:11.900Z,20.41
2017-12-12T17:26:40.180Z,20.39
2017-12-12T17:29:08.476Z,20.41
2017-12-12T17:31:36.756Z,20.50
2017-12-12T17:34:05.032Z,20.41
2017-12-12T17:36:33.309Z,20.45
2017-12-12T17:39:01.664Z,20.44
2017-12-12T17:41:29.978Z,20.52
2017-12-12T17:43:59.278Z,20.49
2017-12-12T17:46:27.583Z,20.44
2017-12-12T17:48:55.850Z,20.33
2017-12-12T17:51:24.301Z,20.37
2017-12-12T17:53:53.104Z,20.32
2017-12-12T17:56:21.453Z,20.33
2017-12-12T17:58:49.708Z,20.27
2017-12-12T18:01:18.020Z,20.32
2017-12-12T18:03:46.416Z,20.33
2017-12-12T18:06:16.273Z,20.25
2017-12-12T18:08:44.860Z,20.29
2017-12-12T18:11:13.157Z,20.26
2017-12-12T18:13:41.608Z,20.26
2017-12-12T18:16:09.926Z,20.23
2017-12-12T18:18:38.173Z,20.22
2017-12-12T18:21:06.493Z,20.23
2017-12-12T18:23:34.793Z,20.20
2017-12-12T18:26:04.009Z,20.14
2017-12-12T18:28:34.166Z,20.16
2017-12-12T18:31:04.881Z,20.16
2017-12-12T18:33:35.649Z,20.16
2017-12-12T18:36:06.839Z,20.14
2017-12-12T18:38:37.321Z,20.13
2017-12-12T18:41:05.629Z,20.11
2017-12-12T18:43:34.081Z,20.09
2017-12-12T18:46:02.389Z,20.18
2017-12-12T18:48:30.777Z,20.29
2017-12-12T18:50:59.289Z,20.35
2017-12-12T18:53:27.542Z,20.42
2017-12-12T18:55:55.807Z,20.46
2017-12-12T18:58:24.084Z,20.54
2017-12-12T19:00:52.740Z,20.59
2017-12-12T19:03:21.040Z,20.68
2017-12-12T19:05:49.345Z,20.80
2017-12-12T19:08:17.601Z,20.86
2017-12-12T19:10:45.922Z,20.93
2017-12-12T19:13:14.225Z,20.92
2017-12-12T19:15:42.484Z,20.98
2017-12-12T19:18:10.852Z,21.02
2017-12-12T19:20:39.125Z,21.08
2017-12-12T19:23:07.681Z,21.01
2017-12-12T19:25:37.165Z,21.01
2017-12-12T19:28:06.849Z,20.99
2017-12-12T19:30:35.941Z,20.97
2017-12-12T19:33:04.222Z,20.92
2017-12-12T19:35:32.489Z,20.92
2017-12-12T19:38:00.882Z,20.91
2017-12-12T19:40:29.320Z,20.87
2017-12-12T19:42:57.569Z,20.87
2017-12-12T19:45:25.841Z,20.91
2017-12-12T19:47:54.135Z,20.90
2017-12-12T19:50:22.400Z,20.98
2017-12-12T19:52:50.677Z,20.97
2017-12-12T19:55:18.998Z,20.99
2017-12-12T19:57:47.265Z,21.00
2017-12-12T20:00:15.573Z,21.09
2017-12-12T20:02:43.898Z,21.19
2017-12-12T20:05:12.189Z,21.31
2017-12-12T20:07:40.437Z,21.39
2017-12-12T20:10:09.117Z,21.51
2017-12-12T20:12:37.588Z,21.54
2017-12-12T20:15:05.869Z,21.56
2017-12-12T20:17:34.258Z,21.60
2017-12-12T20:20:03.728Z,21.66
2017-12-12T20:22:33.029Z,21.81
2017-12-12T20:25:01.490Z,21.89
2017-12-12T20:27:29.808Z,22.00
2017-12-12T20:29:58.041Z,22.09
2017-12-12T20:32:26.333Z,22.15
2017-12-12T20:34:54.628Z,22.23
2017-12-12T20:37:22.961Z,22.32
2017-12-12T20:39:51.209Z,22.43
2017-12-12T20:42:19.500Z,22.44
2017-12-12T20:44:47.737Z,22.51
2017-12-12T20:47:16.033Z,22.53
2017-12-12T20:49:44.296Z,22.33
2017-12-12T20:52:12.813Z,22.31
2017-12-12T20:54:42.114Z,22.41
2017-12-12T20:57:11.741Z,22.42
2017-12-12T20:59:42.646Z,22.48
2017-12-12T21:02:14.855Z,22.51
2017-12-12T21:04:46.618Z,22.58
2017-12-12T21:07:20.373Z,22.60
2017-12-12T21:09:48.689Z,22.52
2017-12-12T21:12:16.982Z,22.47
2017-12-12T21:14:45.319Z,22.33
2017-12-12T21:17:20.537Z,22.07
2017-12-12T21:19:49.133Z,21.96
2017-12-12T21:22:17.442Z,21.85
2017-12-12T21:24:45.896Z,21.68
2017-12-12T21:27:14.198Z,21.52
2017-12-12T21:29:42.480Z,21.50
2017-12-12T21:32:10.849Z,21.41
2017-12-12T21:34:39.169Z,21.43
2017-12-12T21:37:07.429Z,21.38
2017-12-12T21:39:36.377Z,21.33
2017-12-12T21:42:04.808Z,21.31
2017-12-12T21:44:33.196Z,21.38
2017-12-12T21:47:01.453Z,21.29
2017-12-12T21:49:29.982Z,21.27
2017-12-12T21:51:58.302Z,21.19
2017-12-12T21:54:26.788Z,21.18
2017-12-12T21:56:55.841Z,21.28
2017-12-12T21:59:25.025Z,21.38
2017-12-12T22:01:54.538Z,21.41
2017-12-12T22:05:10.268Z,21.46
2017-12-12T22:07:38.946Z,21.35
2017-12-12T22:10:07.300Z,21.20
2017-12-12T22:12:35.695Z,21.20
2017-12-12T22:15:04.347Z,21.10
2017-12-12T22:17:32.725Z,21.08
2017-12-12T22:20:01.290Z,21.12
2017-12-12T22:22:29.802Z,21.09
2017-12-12T22:24:58.417Z,21.08
2017-12-12T22:27:26.736Z,21.02
2017-12-12T22:29:55.177Z,21.06
2017-12-12T22:32:23.841Z,21.01
2017-12-12T22:34:52.484Z,21.03
2017-12-12T22:37:21.032Z,21.07
2017-12-12T22:39:50.500Z,21.10
2017-12-12T22:42:19.257Z,21.02
2017-12-12T22:44:47.701Z,20.98
2017-12-12T22:47:16.125Z,20.95
2017-12-12T22:49:45.423Z,20.98
2017-12-12T22:52:14.092Z,21.02
2017-12-12T22:54:42.504Z,21.08
2017-12-12T22:57:10.825Z,21.14
2017-12-12T22:59:39.128Z,21.15
2017-12-12T23:02:07.777Z,21.19
2017-12-12T23:04:36.253Z,21.24
2017-12-12T23:07:04.737Z,21.15
2017-12-12T23:09:33.314Z,21.18
2017-12-12T23:12:01.938Z,21.22
2017-12-12T23:14:30.214Z,21.28
2017-12-12T23:16:58.759Z,21.27
2017-12-12T23:19:27.385Z,21.28
2017-12-12T23:21:56.116Z,21.29
2017-12-12T23:24:24.492Z,21.28
2017-12-12T23:26:52.878Z,21.29
2017-12-12T23:29:21.197Z,21.09
2017-12-12T23:31:50.349Z,20.91
2017-12-12T23:34:19.786Z,20.65
2017-12-12T23:36:48.253Z,20.59
2017-12-12T23:39:16.509Z,20.43
2017-12-12T23:41:44.992Z,20.36
2017-12-12T23:44:16.404Z,20.37
2017-12-12T23:46:44.924Z,20.29
2017-12-12T23:49:13.392Z,20.27
2017-12-12T23:51:41.976Z,20.23
2017-12-12T23:54:10.432Z,20.30
2017-12-12T23:56:38.796Z,20.23
2017-12-12T23:59:07.141Z,20.38
